Hovedside
METAR-TAF:

METAR-TAF

Lufthavner :

Maya-Maya lufthavn

Brazzaville, Kongo

breddegrad: 04-15S, lengdegrad: 015-15E, høyde over havet: 319 m

Gjeldene værobservasjon

Denne rapporten ble laget for 1 time og 23 minutter siden, klokken 21:00 UTC
Vind 4 kt fra Sør-sørvest
Temperatur 24°C
Luftfuktighet 83%
Trykk 1013 hPa
Sikt: 7000 m

METAR: FCBB 252100Z 21004KT 7000 NSC 24/21 Q1013 NOSIG

Tid: 23:23 (22:23 UTC)

Varsel

Denne rapporten ble laget for 5 timer og 23 minutter siden, klokken 17:00 UTC
Varsel gyldig fra 25. klokken 18 UTC til 26. klokken 24 UTC
Vind 4 kt fra Vest-sørvest
Sikt: 6000 m
Få skyer i en høyde av 1800 ft
Sannsynlighet 30%
fra 26. klokken 05 UTC til 26. klokken 08 UTC
Sikt: 4000 m
dis
Sannsynlighet 30%
fra 26. klokken 15 UTC til 26. klokken 19 UTC
Sikt: 4500 m
dis,

TAF: FCBB 251700Z 2518/2624 25004KT 6000 FEW018 PROB30 2605/2608 4000 BR PROB30 2615/2619 4500 HZ

Værobservasjoner og værvarsel for over 4000 flyplasser (METAR- og TAF-rapporter).

Tilgjengelige stasjoner er representert av de røde og gule prikkene på kartet.

Hold musepekeren over prikken for å se navnet på stasjonen.

Klikk så for å se værobservasjoner og -varsler.

For å forandre kartet kan du klikke på den grønne knappen med svart kryss for å zoome inn, på den grønne knappen med strek for å zoome ut, eller på de grønne pilene for å se tilstøtende kart.


METAR-TAF: